HRYR/KGL METAR and TAF weather

Enter ICAO airport designator
Station Type Date Time Source
HRYR METAR 2018/12/13 16:00 UTC NOAA

HRYR 131600Z 15003KT 9999 SCT025 SCT100 18/16 Q1022 NOSIG


Station Type Date Time Source
HRYR Decoded METAR 2018/12/13 16:00 UTC NOAA

Kigali, Rwanda (HRYR) 01-58S 030-07E 1497M
Dec 13, 2018 - 11:00 AM EST / 2018.12.13 1600 UTC
Wind: from the SSE (150 degrees) at 3 MPH (3 KT):0
Visibility: greater than 7 mile(s):0
Sky conditions: partly cloudy
Temperature: 64 F (18 C)
Dew Point: 60 F (16 C)
Relative Humidity: 88%
Pressure (altimeter): 30.18 in. Hg (1022 hPa)
ob: HRYR 131600Z 15003KT 9999 SCT025 SCT100 18/16 Q1022 NOSIG
cycle: 16

Station Type Date Time Source
HRYR TAF 2018/12/13 12:54 UTC NOAA

TAF HRYR 131100Z 1312/1418 14006KT 9999 -RA FEW020CB BKN023 BKN100
BECMG 1316/1319 20005KT FEW023CB SCT025 BKN100 FM 132100 28004KT SCT026 BKN100
BECMG 1402/1405 00000KT 3000 BR FEW010 SCT023 SCT100 FM 140900 17008KT 9999 BKN025
TEMPO 1412/1416 19010G20KT -TSRA FEW023CB BKN025


Example: see airport list